首页
METAR-TAF:

METAR-TAF

机场 :

Gustavus, 阿拉斯加州, 美国

纬度: 58-25N, 经度: 135-42W, 海拔: 10米

当前天气观测

该预报发布于31分钟前的22:56 UTC
风速5节,风向南转西南
温度 11°C
湿度 76%
气压 1019 hPa
能見度: 16.1公里
散云层高于4100英尺
多云层高于5000英尺
阴天层高于6000英尺

METAR: PAGS 032256Z AUTO 21005KT 10SM SCT041 BKN050 OVC060 11/07 A3009 RMK AO2 RAB19E37 SLP190 P0000 T01060067

时间: 15:27 (23:27 UTC)

预报

该预报发布于5小时和55分钟前的17:32 UTC
预报有效从03日的 18点(UTC)到 04日的 18点(UTC)
风速7节,风向东转东南
能見度: 10公里
散云层高于2500英尺
多云层高于3500英尺
阴天层高于5000英尺
小阵雨
短暂存在
从 03日的 19点(UTC)到 03日的 23点(UTC)
多云层高于2500英尺
阴天层高于3500英尺
从 04日的 0400点(UTC)
风速4节,风向多变
能見度: 10公里
散云层高于2500英尺
多云层高于5000英尺

TAF: PAGS 031732Z 0318/0418 11007KT P6SM -SHRA SCT025 BKN035 OVC050 TEMPO 0319/0323 BKN025 OVC035 FM040400 VRB04KT P6SM SCT025 BKN050 AMD LTD TO CLD VIS AND WIND

超过4000个机场的气象观测和天气预报(METAR&TAF报告)。

可查询的气象台以黄色和红色小点在地图上表示。

将鼠标移到小点上方,可查看气象台名称。

然后点击查看天气观测和预报。

如需切换地图:点击带黑十字的绿色按钮放大地图;点击带横线的绿色按钮缩小地图;或者点击绿色箭头查看邻近地区的地图。


METAR-TAF: